sensor_id;sensor_type;location;lat;lon;timestamp;P1;durP1;ratioP1;P2;durP2;ratioP2
6852;SDS011;3465;42.144;24.722;2022-12-05T00:00:52;24.30;;;11.47;;
6852;SDS011;3465;42.144;24.722;2022-12-05T00:03:19;22.27;;;11.30;;
6852;SDS011;3465;42.144;24.722;2022-12-05T00:05:44;22.63;;;12.43;;
6852;SDS011;3465;42.144;24.722;2022-12-05T00:08:10;22.13;;;12.20;;
6852;SDS011;3465;42.144;24.722;2022-12-05T00:10:36;25.87;;;12.97;;
6852;SDS011;3465;42.144;24.722;2022-12-05T00:13:02;26.27;;;12.70;;
6852;SDS011;3465;42.144;24.722;2022-12-05T00:15:28;25.10;;;12.43;;
6852;SDS011;3465;42.144;24.722;2022-12-05T00:17:53;26.50;;;13.53;;
6852;SDS011;3465;42.144;24.722;2022-12-05T00:20:18;22.50;;;12.90;;
6852;SDS011;3465;42.144;24.722;2022-12-05T00:22:45;22.57;;;12.63;;
6852;SDS011;3465;42.144;24.722;2022-12-05T00:25:10;23.40;;;12.90;;
6852;SDS011;3465;42.144;24.722;2022-12-05T00:27:35;24.03;;;12.47;;
6852;SDS011;3465;42.144;24.722;2022-12-05T00:30:01;29.50;;;13.60;;
6852;SDS011;3465;42.144;24.722;2022-12-05T00:32:27;24.27;;;12.63;;
6852;SDS011;3465;42.144;24.722;2022-12-05T00:34:53;25.00;;;12.90;;
6852;SDS011;3465;42.144;24.722;2022-12-05T00:37:19;25.47;;;12.33;;
6852;SDS011;3465;42.144;24.722;2022-12-05T00:39:44;20.00;;;11.03;;
6852;SDS011;3465;42.144;24.722;2022-12-05T00:42:10;38.10;;;13.73;;
6852;SDS011;3465;42.144;24.722;2022-12-05T00:44:35;27.87;;;11.50;;
6852;SDS011;3465;42.144;24.722;2022-12-05T00:47:01;23.17;;;10.87;;
6852;SDS011;3465;42.144;24.722;2022-12-05T00:49:27;18.27;;;9.77;;
6852;SDS011;3465;42.144;24.722;2022-12-05T00:51:52;20.80;;;10.57;;
6852;SDS011;3465;42.144;24.722;2022-12-05T00:54:18;18.43;;;9.77;;
6852;SDS011;3465;42.144;24.722;2022-12-05T00:56:43;20.40;;;9.40;;
6852;SDS011;3465;42.144;24.722;2022-12-05T00:59:16;17.67;;;9.13;;
6852;SDS011;3465;42.144;24.722;2022-12-05T01:01:44;15.40;;;8.63;;
6852;SDS011;3465;42.144;24.722;2022-12-05T01:04:11;15.63;;;8.93;;
6852;SDS011;3465;42.144;24.722;2022-12-05T01:06:39;16.60;;;8.97;;
6852;SDS011;3465;42.144;24.722;2022-12-05T01:09:05;15.67;;;9.20;;
6852;SDS011;3465;42.144;24.722;2022-12-05T01:11:31;19.40;;;9.30;;
6852;SDS011;3465;42.144;24.722;2022-12-05T01:13:57;23.20;;;9.90;;
6852;SDS011;3465;42.144;24.722;2022-12-05T01:16:26;18.00;;;9.03;;
6852;SDS011;3465;42.144;24.722;2022-12-05T01:18:57;16.63;;;8.87;;
6852;SDS011;3465;42.144;24.722;2022-12-05T01:21:24;23.60;;;9.27;;
6852;SDS011;3465;42.144;24.722;2022-12-05T01:23:49;18.13;;;9.87;;
6852;SDS011;3465;42.144;24.722;2022-12-05T01:26:16;24.30;;;10.47;;
6852;SDS011;3465;42.144;24.722;2022-12-05T01:28:42;16.50;;;9.87;;
6852;SDS011;3465;42.144;24.722;2022-12-05T01:31:09;16.37;;;8.80;;
6852;SDS011;3465;42.144;24.722;2022-12-05T01:33:42;18.20;;;10.13;;
6852;SDS011;3465;42.144;24.722;2022-12-05T01:36:09;20.07;;;9.73;;
6852;SDS011;3465;42.144;24.722;2022-12-05T01:38:39;18.13;;;9.77;;
6852;SDS011;3465;42.144;24.722;2022-12-05T01:41:06;18.20;;;9.73;;
6852;SDS011;3465;42.144;24.722;2022-12-05T01:46:31;16.87;;;9.23;;
6852;SDS011;3465;42.144;24.722;2022-12-05T01:49:00;19.83;;;9.67;;
6852;SDS011;3465;42.144;24.722;2022-12-05T01:51:48;18.47;;;9.83;;
6852;SDS011;3465;42.144;24.722;2022-12-05T01:54:17;16.00;;;9.53;;
6852;SDS011;3465;42.144;24.722;2022-12-05T01:56:46;20.87;;;10.50;;
6852;SDS011;3465;42.144;24.722;2022-12-05T01:59:14;16.33;;;9.27;;
6852;SDS011;3465;42.144;24.722;2022-12-05T02:01:42;15.70;;;9.50;;
6852;SDS011;3465;42.144;24.722;2022-12-05T02:04:07;23.10;;;10.23;;
6852;SDS011;3465;42.144;24.722;2022-12-05T02:06:34;17.07;;;9.17;;
6852;SDS011;3465;42.144;24.722;2022-12-05T02:08:59;18.83;;;9.43;;
6852;SDS011;3465;42.144;24.722;2022-12-05T02:11:26;20.90;;;9.77;;
6852;SDS011;3465;42.144;24.722;2022-12-05T02:24:52;19.10;;;9.23;;
6852;SDS011;3465;42.144;24.722;2022-12-05T02:35:24;20.27;;;10.50;;
6852;SDS011;3465;42.144;24.722;2022-12-05T02:43:13;23.20;;;10.40;;
6852;SDS011;3465;42.144;24.722;2022-12-05T02:45:44;34.43;;;14.90;;
6852;SDS011;3465;42.144;24.722;2022-12-05T02:48:17;30.07;;;14.70;;
6852;SDS011;3465;42.144;24.722;2022-12-05T02:50:45;27.97;;;13.47;;
6852;SDS011;3465;42.144;24.722;2022-12-05T02:53:13;27.47;;;13.10;;
6852;SDS011;3465;42.144;24.722;2022-12-05T02:55:41;21.17;;;11.33;;
6852;SDS011;3465;42.144;24.722;2022-12-05T02:58:14;25.23;;;11.57;;
6852;SDS011;3465;42.144;24.722;2022-12-05T03:00:49;20.30;;;10.77;;
6852;SDS011;3465;42.144;24.722;2022-12-05T03:03:21;20.70;;;11.00;;
6852;SDS011;3465;42.144;24.722;2022-12-05T03:08:42;25.43;;;10.40;;
6852;SDS011;3465;42.144;24.722;2022-12-05T03:11:12;22.73;;;11.37;;
6852;SDS011;3465;42.144;24.722;2022-12-05T03:13:58;24.80;;;10.87;;
6852;SDS011;3465;42.144;24.722;2022-12-05T03:18:59;25.80;;;10.80;;
6852;SDS011;3465;42.144;24.722;2022-12-05T03:22:02;26.83;;;12.87;;
6852;SDS011;3465;42.144;24.722;2022-12-05T03:24:25;28.33;;;12.40;;
6852;SDS011;3465;42.144;24.722;2022-12-05T03:29:52;27.63;;;12.23;;
6852;SDS011;3465;42.144;24.722;2022-12-05T03:32:27;31.23;;;12.70;;
6852;SDS011;3465;42.144;24.722;2022-12-05T03:37:26;32.83;;;13.17;;
6852;SDS011;3465;42.144;24.722;2022-12-05T03:40:02;38.60;;;13.67;;
6852;SDS011;3465;42.144;24.722;2022-12-05T03:42:35;33.50;;;14.13;;
6852;SDS011;3465;42.144;24.722;2022-12-05T03:45:14;32.70;;;13.70;;
6852;SDS011;3465;42.144;24.722;2022-12-05T03:47:46;33.30;;;13.83;;
6852;SDS011;3465;42.144;24.722;2022-12-05T03:50:22;33.53;;;13.93;;
6852;SDS011;3465;42.144;24.722;2022-12-05T03:53:01;32.90;;;13.77;;
6852;SDS011;3465;42.144;24.722;2022-12-05T03:55:32;34.30;;;13.47;;
6852;SDS011;3465;42.144;24.722;2022-12-05T03:58:19;30.27;;;14.60;;
6852;SDS011;3465;42.144;24.722;2022-12-05T04:00:51;33.93;;;13.93;;
6852;SDS011;3465;42.144;24.722;2022-12-05T04:03:29;39.00;;;15.80;;
6852;SDS011;3465;42.144;24.722;2022-12-05T04:06:03;34.83;;;14.43;;
6852;SDS011;3465;42.144;24.722;2022-12-05T04:08:36;34.43;;;14.23;;
6852;SDS011;3465;42.144;24.722;2022-12-05T04:11:10;31.97;;;13.73;;
6852;SDS011;3465;42.144;24.722;2022-12-05T04:13:41;34.73;;;14.23;;
6852;SDS011;3465;42.144;24.722;2022-12-05T04:16:11;33.07;;;14.03;;
6852;SDS011;3465;42.144;24.722;2022-12-05T04:19:22;39.00;;;13.87;;
6852;SDS011;3465;42.144;24.722;2022-12-05T04:21:52;30.23;;;11.93;;
6852;SDS011;3465;42.144;24.722;2022-12-05T04:30:04;37.90;;;13.10;;
6852;SDS011;3465;42.144;24.722;2022-12-05T04:32:36;26.90;;;11.93;;
6852;SDS011;3465;42.144;24.722;2022-12-05T04:35:10;25.70;;;11.67;;
6852;SDS011;3465;42.144;24.722;2022-12-05T04:37:43;24.13;;;10.93;;
6852;SDS011;3465;42.144;24.722;2022-12-05T04:40:13;20.20;;;11.13;;
6852;SDS011;3465;42.144;24.722;2022-12-05T04:42:45;23.33;;;10.70;;
6852;SDS011;3465;42.144;24.722;2022-12-05T04:45:14;25.60;;;11.17;;
6852;SDS011;3465;42.144;24.722;2022-12-05T04:47:44;21.83;;;10.90;;
6852;SDS011;3465;42.144;24.722;2022-12-05T04:50:15;21.70;;;10.33;;
6852;SDS011;3465;42.144;24.722;2022-12-05T04:52:42;23.57;;;11.27;;
6852;SDS011;3465;42.144;24.722;2022-12-05T04:55:12;22.87;;;11.23;;
6852;SDS011;3465;42.144;24.722;2022-12-05T04:57:50;27.87;;;11.77;;
6852;SDS011;3465;42.144;24.722;2022-12-05T05:00:20;26.30;;;11.57;;
6852;SDS011;3465;42.144;24.722;2022-12-05T05:03:07;27.83;;;12.20;;
6852;SDS011;3465;42.144;24.722;2022-12-05T05:05:35;30.67;;;11.93;;
6852;SDS011;3465;42.144;24.722;2022-12-05T05:08:02;22.57;;;11.27;;
6852;SDS011;3465;42.144;24.722;2022-12-05T05:10:38;27.83;;;12.70;;
6852;SDS011;3465;42.144;24.722;2022-12-05T05:13:09;30.33;;;12.83;;
6852;SDS011;3465;42.144;24.722;2022-12-05T05:15:34;31.70;;;12.97;;
6852;SDS011;3465;42.144;24.722;2022-12-05T05:18:00;33.67;;;14.53;;
6852;SDS011;3465;42.144;24.722;2022-12-05T05:20:25;29.53;;;12.60;;
6852;SDS011;3465;42.144;24.722;2022-12-05T05:22:55;29.47;;;12.07;;
6852;SDS011;3465;42.144;24.722;2022-12-05T05:25:22;29.40;;;12.53;;
6852;SDS011;3465;42.144;24.722;2022-12-05T05:27:48;28.60;;;12.73;;
6852;SDS011;3465;42.144;24.722;2022-12-05T05:30:15;30.83;;;11.77;;
6852;SDS011;3465;42.144;24.722;2022-12-05T05:32:41;26.47;;;11.73;;
6852;SDS011;3465;42.144;24.722;2022-12-05T05:35:07;30.47;;;11.80;;
6852;SDS011;3465;42.144;24.722;2022-12-05T05:37:32;32.07;;;12.53;;
6852;SDS011;3465;42.144;24.722;2022-12-05T05:39:58;28.03;;;11.67;;
6852;SDS011;3465;42.144;24.722;2022-12-05T05:42:23;24.53;;;11.93;;
6852;SDS011;3465;42.144;24.722;2022-12-05T05:44:48;36.63;;;13.00;;
6852;SDS011;3465;42.144;24.722;2022-12-05T05:47:14;31.00;;;11.93;;
6852;SDS011;3465;42.144;24.722;2022-12-05T05:49:39;38.03;;;13.17;;
6852;SDS011;3465;42.144;24.722;2022-12-05T05:52:04;37.03;;;13.33;;
6852;SDS011;3465;42.144;24.722;2022-12-05T05:54:30;29.57;;;12.77;;
6852;SDS011;3465;42.144;24.722;2022-12-05T05:56:55;32.70;;;12.43;;
6852;SDS011;3465;42.144;24.722;2022-12-05T05:59:21;41.00;;;14.07;;
6852;SDS011;3465;42.144;24.722;2022-12-05T06:01:46;33.23;;;12.90;;
6852;SDS011;3465;42.144;24.722;2022-12-05T06:04:11;39.30;;;13.50;;
6852;SDS011;3465;42.144;24.722;2022-12-05T06:06:37;37.00;;;14.13;;
6852;SDS011;3465;42.144;24.722;2022-12-05T06:09:04;32.97;;;13.50;;
6852;SDS011;3465;42.144;24.722;2022-12-05T06:11:30;57.07;;;16.07;;
6852;SDS011;3465;42.144;24.722;2022-12-05T06:13:56;45.00;;;15.97;;
6852;SDS011;3465;42.144;24.722;2022-12-05T06:16:26;30.70;;;13.37;;
6852;SDS011;3465;42.144;24.722;2022-12-05T06:18:53;35.40;;;14.27;;
6852;SDS011;3465;42.144;24.722;2022-12-05T06:21:18;38.20;;;15.40;;
6852;SDS011;3465;42.144;24.722;2022-12-05T06:23:45;56.17;;;22.07;;
6852;SDS011;3465;42.144;24.722;2022-12-05T06:26:11;50.20;;;20.17;;
6852;SDS011;3465;42.144;24.722;2022-12-05T06:28:39;37.07;;;16.47;;
6852;SDS011;3465;42.144;24.722;2022-12-05T06:31:08;34.70;;;13.80;;
6852;SDS011;3465;42.144;24.722;2022-12-05T06:33:35;41.87;;;15.43;;
6852;SDS011;3465;42.144;24.722;2022-12-05T06:36:01;37.20;;;14.97;;
6852;SDS011;3465;42.144;24.722;2022-12-05T06:38:28;41.03;;;15.93;;
6852;SDS011;3465;42.144;24.722;2022-12-05T06:40:53;36.33;;;15.80;;
6852;SDS011;3465;42.144;24.722;2022-12-05T06:43:19;37.93;;;15.80;;
6852;SDS011;3465;42.144;24.722;2022-12-05T06:45:44;38.43;;;16.30;;
6852;SDS011;3465;42.144;24.722;2022-12-05T06:48:10;45.97;;;17.07;;
6852;SDS011;3465;42.144;24.722;2022-12-05T06:50:35;44.90;;;16.30;;
6852;SDS011;3465;42.144;24.722;2022-12-05T06:53:00;41.70;;;16.50;;
6852;SDS011;3465;42.144;24.722;2022-12-05T06:55:26;33.93;;;15.53;;
6852;SDS011;3465;42.144;24.722;2022-12-05T06:57:51;37.47;;;15.80;;
6852;SDS011;3465;42.144;24.722;2022-12-05T07:00:17;37.13;;;15.87;;
6852;SDS011;3465;42.144;24.722;2022-12-05T07:03:00;37.63;;;15.40;;
6852;SDS011;3465;42.144;24.722;2022-12-05T07:05:26;36.50;;;16.00;;
6852;SDS011;3465;42.144;24.722;2022-12-05T07:07:51;43.63;;;16.47;;
6852;SDS011;3465;42.144;24.722;2022-12-05T07:10:17;51.27;;;15.97;;
6852;SDS011;3465;42.144;24.722;2022-12-05T07:12:42;68.77;;;17.63;;
6852;SDS011;3465;42.144;24.722;2022-12-05T07:15:08;41.57;;;15.17;;
6852;SDS011;3465;42.144;24.722;2022-12-05T07:17:35;37.50;;;15.07;;
6852;SDS011;3465;42.144;24.722;2022-12-05T07:20:02;42.93;;;15.80;;
6852;SDS011;3465;42.144;24.722;2022-12-05T07:22:29;40.27;;;15.07;;
6852;SDS011;3465;42.144;24.722;2022-12-05T07:24:55;36.93;;;15.30;;
6852;SDS011;3465;42.144;24.722;2022-12-05T07:27:20;34.43;;;14.83;;
6852;SDS011;3465;42.144;24.722;2022-12-05T07:29:46;40.73;;;14.83;;
6852;SDS011;3465;42.144;24.722;2022-12-05T07:32:11;45.83;;;14.17;;
6852;SDS011;3465;42.144;24.722;2022-12-05T07:34:36;39.10;;;15.73;;
6852;SDS011;3465;42.144;24.722;2022-12-05T07:37:03;41.33;;;15.33;;
6852;SDS011;3465;42.144;24.722;2022-12-05T07:39:28;47.03;;;15.80;;
6852;SDS011;3465;42.144;24.722;2022-12-05T07:41:54;45.57;;;15.67;;
6852;SDS011;3465;42.144;24.722;2022-12-05T07:44:19;46.53;;;15.60;;
6852;SDS011;3465;42.144;24.722;2022-12-05T07:46:45;40.80;;;16.93;;
6852;SDS011;3465;42.144;24.722;2022-12-05T07:49:10;43.03;;;15.83;;
6852;SDS011;3465;42.144;24.722;2022-12-05T07:51:36;46.43;;;16.53;;
6852;SDS011;3465;42.144;24.722;2022-12-05T07:54:01;42.33;;;16.33;;
6852;SDS011;3465;42.144;24.722;2022-12-05T07:56:27;41.17;;;16.90;;
6852;SDS011;3465;42.144;24.722;2022-12-05T07:58:53;45.53;;;18.30;;
6852;SDS011;3465;42.144;24.722;2022-12-05T08:01:19;43.10;;;18.13;;
6852;SDS011;3465;42.144;24.722;2022-12-05T08:03:47;42.30;;;18.40;;
6852;SDS011;3465;42.144;24.722;2022-12-05T08:06:14;42.33;;;18.47;;
6852;SDS011;3465;42.144;24.722;2022-12-05T08:08:42;36.87;;;17.53;;
6852;SDS011;3465;42.144;24.722;2022-12-05T08:13:36;38.23;;;19.83;;
6852;SDS011;3465;42.144;24.722;2022-12-05T08:16:03;48.73;;;21.13;;
6852;SDS011;3465;42.144;24.722;2022-12-05T08:18:30;44.57;;;20.70;;
6852;SDS011;3465;42.144;24.722;2022-12-05T08:21:06;44.50;;;20.67;;
6852;SDS011;3465;42.144;24.722;2022-12-05T08:23:43;43.83;;;19.47;;
6852;SDS011;3465;42.144;24.722;2022-12-05T08:26:13;48.23;;;20.57;;
6852;SDS011;3465;42.144;24.722;2022-12-05T08:28:44;52.23;;;21.97;;
6852;SDS011;3465;42.144;24.722;2022-12-05T08:31:14;60.33;;;22.73;;
6852;SDS011;3465;42.144;24.722;2022-12-05T08:33:41;50.10;;;22.00;;
6852;SDS011;3465;42.144;24.722;2022-12-05T08:36:09;57.43;;;21.20;;
6852;SDS011;3465;42.144;24.722;2022-12-05T08:38:38;47.70;;;22.00;;
6852;SDS011;3465;42.144;24.722;2022-12-05T08:41:05;48.80;;;21.17;;
6852;SDS011;3465;42.144;24.722;2022-12-05T08:43:32;47.43;;;22.33;;
6852;SDS011;3465;42.144;24.722;2022-12-05T08:45:58;50.00;;;22.33;;
6852;SDS011;3465;42.144;24.722;2022-12-05T08:48:24;50.50;;;21.63;;
6852;SDS011;3465;42.144;24.722;2022-12-05T08:50:50;46.03;;;21.53;;
6852;SDS011;3465;42.144;24.722;2022-12-05T08:53:16;44.07;;;21.13;;
6852;SDS011;3465;42.144;24.722;2022-12-05T08:55:42;48.97;;;21.30;;
6852;SDS011;3465;42.144;24.722;2022-12-05T08:58:07;57.20;;;21.83;;
6852;SDS011;3465;42.144;24.722;2022-12-05T09:00:33;43.37;;;20.60;;
6852;SDS011;3465;42.144;24.722;2022-12-05T09:02:59;43.67;;;20.87;;
6852;SDS011;3465;42.144;24.722;2022-12-05T09:05:24;41.87;;;20.80;;
6852;SDS011;3465;42.144;24.722;2022-12-05T09:07:50;50.87;;;22.33;;
6852;SDS011;3465;42.144;24.722;2022-12-05T09:10:16;51.17;;;21.90;;
6852;SDS011;3465;42.144;24.722;2022-12-05T09:12:41;47.27;;;20.67;;
6852;SDS011;3465;42.144;24.722;2022-12-05T09:15:10;51.40;;;20.47;;
6852;SDS011;3465;42.144;24.722;2022-12-05T09:17:36;40.97;;;18.93;;
6852;SDS011;3465;42.144;24.722;2022-12-05T09:20:03;53.80;;;22.80;;
6852;SDS011;3465;42.144;24.722;2022-12-05T09:22:29;45.40;;;21.00;;
6852;SDS011;3465;42.144;24.722;2022-12-05T09:24:55;38.30;;;17.97;;
6852;SDS011;3465;42.144;24.722;2022-12-05T09:27:20;43.27;;;18.67;;
6852;SDS011;3465;42.144;24.722;2022-12-05T09:29:46;40.03;;;18.37;;
6852;SDS011;3465;42.144;24.722;2022-12-05T09:32:11;49.90;;;21.43;;
6852;SDS011;3465;42.144;24.722;2022-12-05T09:34:36;42.10;;;20.30;;
6852;SDS011;3465;42.144;24.722;2022-12-05T09:37:06;47.20;;;21.80;;
6852;SDS011;3465;42.144;24.722;2022-12-05T09:39:32;53.17;;;21.80;;
6852;SDS011;3465;42.144;24.722;2022-12-05T09:50:18;36.30;;;15.33;;
6852;SDS011;3465;42.144;24.722;2022-12-05T09:55:22;35.77;;;17.53;;
6852;SDS011;3465;42.144;24.722;2022-12-05T09:57:51;34.73;;;16.63;;
6852;SDS011;3465;42.144;24.722;2022-12-05T10:00:21;36.10;;;17.10;;
6852;SDS011;3465;42.144;24.722;2022-12-05T10:05:28;42.17;;;18.20;;
6852;SDS011;3465;42.144;24.722;2022-12-05T10:08:11;41.50;;;19.43;;
6852;SDS011;3465;42.144;24.722;2022-12-05T10:15:55;40.23;;;19.43;;
6852;SDS011;3465;42.144;24.722;2022-12-05T10:21:17;39.63;;;19.50;;
6852;SDS011;3465;42.144;24.722;2022-12-05T10:26:43;50.13;;;19.60;;
6852;SDS011;3465;42.144;24.722;2022-12-05T10:29:20;50.73;;;20.13;;
6852;SDS011;3465;42.144;24.722;2022-12-05T10:31:53;38.37;;;19.07;;
6852;SDS011;3465;42.144;24.722;2022-12-05T10:34:41;34.57;;;16.67;;
6852;SDS011;3465;42.144;24.722;2022-12-05T10:37:13;33.13;;;15.60;;
6852;SDS011;3465;42.144;24.722;2022-12-05T10:39:39;29.60;;;15.13;;
6852;SDS011;3465;42.144;24.722;2022-12-05T10:42:05;27.70;;;14.30;;
6852;SDS011;3465;42.144;24.722;2022-12-05T10:44:39;34.37;;;16.13;;
6852;SDS011;3465;42.144;24.722;2022-12-05T10:47:05;33.53;;;15.90;;
6852;SDS011;3465;42.144;24.722;2022-12-05T10:49:30;32.17;;;15.03;;
6852;SDS011;3465;42.144;24.722;2022-12-05T10:51:57;28.90;;;14.60;;
6852;SDS011;3465;42.144;24.722;2022-12-05T10:54:24;35.33;;;15.93;;
6852;SDS011;3465;42.144;24.722;2022-12-05T10:56:53;30.73;;;14.10;;
6852;SDS011;3465;42.144;24.722;2022-12-05T10:59:19;29.30;;;14.00;;
6852;SDS011;3465;42.144;24.722;2022-12-05T11:01:53;35.43;;;14.30;;
6852;SDS011;3465;42.144;24.722;2022-12-05T11:04:40;27.33;;;13.03;;
6852;SDS011;3465;42.144;24.722;2022-12-05T11:09:56;29.67;;;14.03;;
6852;SDS011;3465;42.144;24.722;2022-12-05T11:12:36;29.00;;;13.70;;
6852;SDS011;3465;42.144;24.722;2022-12-05T11:17:38;29.33;;;13.03;;
6852;SDS011;3465;42.144;24.722;2022-12-05T11:22:41;30.03;;;13.17;;
6852;SDS011;3465;42.144;24.722;2022-12-05T11:28:39;24.47;;;12.63;;
6852;SDS011;3465;42.144;24.722;2022-12-05T11:31:01;27.30;;;13.37;;
6852;SDS011;3465;42.144;24.722;2022-12-05T11:33:28;34.77;;;13.27;;
6852;SDS011;3465;42.144;24.722;2022-12-05T11:35:57;30.57;;;12.80;;
6852;SDS011;3465;42.144;24.722;2022-12-05T11:38:28;28.03;;;13.83;;
6852;SDS011;3465;42.144;24.722;2022-12-05T11:41:31;30.70;;;12.93;;
6852;SDS011;3465;42.144;24.722;2022-12-05T11:51:58;28.37;;;13.47;;
6852;SDS011;3465;42.144;24.722;2022-12-05T11:57:24;26.90;;;12.80;;
6852;SDS011;3465;42.144;24.722;2022-12-05T12:08:36;21.90;;;11.60;;
6852;SDS011;3465;42.144;24.722;2022-12-05T12:11:28;29.43;;;14.03;;
6852;SDS011;3465;42.144;24.722;2022-12-05T12:14:18;29.67;;;14.07;;
6852;SDS011;3465;42.144;24.722;2022-12-05T12:17:12;24.57;;;12.30;;
6852;SDS011;3465;42.144;24.722;2022-12-05T12:36:16;25.10;;;12.63;;
6852;SDS011;3465;42.144;24.722;2022-12-05T12:41:36;23.77;;;12.83;;
6852;SDS011;3465;42.144;24.722;2022-12-05T12:51:42;22.77;;;11.97;;
6852;SDS011;3465;42.144;24.722;2022-12-05T12:54:22;23.13;;;12.33;;
6852;SDS011;3465;42.144;24.722;2022-12-05T12:57:11;27.57;;;12.37;;
6852;SDS011;3465;42.144;24.722;2022-12-05T13:03:10;23.97;;;11.23;;
6852;SDS011;3465;42.144;24.722;2022-12-05T13:05:48;20.80;;;11.30;;
6852;SDS011;3465;42.144;24.722;2022-12-05T13:08:35;27.50;;;11.87;;
6852;SDS011;3465;42.144;24.722;2022-12-05T13:11:10;25.17;;;11.93;;
6852;SDS011;3465;42.144;24.722;2022-12-05T13:13:59;21.27;;;11.83;;
6852;SDS011;3465;42.144;24.722;2022-12-05T13:16:32;23.23;;;12.47;;
6852;SDS011;3465;42.144;24.722;2022-12-05T13:19:02;33.97;;;13.40;;
6852;SDS011;3465;42.144;24.722;2022-12-05T13:21:30;23.03;;;11.70;;
6852;SDS011;3465;42.144;24.722;2022-12-05T13:23:56;20.87;;;11.07;;
6852;SDS011;3465;42.144;24.722;2022-12-05T13:26:27;22.80;;;10.63;;
6852;SDS011;3465;42.144;24.722;2022-12-05T13:28:57;17.50;;;9.70;;
6852;SDS011;3465;42.144;24.722;2022-12-05T13:34:03;18.17;;;9.77;;
6852;SDS011;3465;42.144;24.722;2022-12-05T13:36:29;56.87;;;23.67;;
6852;SDS011;3465;42.144;24.722;2022-12-05T13:39:22;32.57;;;11.77;;
6852;SDS011;3465;42.144;24.722;2022-12-05T13:42:18;23.33;;;11.70;;
6852;SDS011;3465;42.144;24.722;2022-12-05T13:45:07;26.40;;;10.57;;
6852;SDS011;3465;42.144;24.722;2022-12-05T13:47:39;23.23;;;10.07;;
6852;SDS011;3465;42.144;24.722;2022-12-05T13:50:17;18.80;;;9.60;;
6852;SDS011;3465;42.144;24.722;2022-12-05T13:52:53;21.67;;;10.30;;
6852;SDS011;3465;42.144;24.722;2022-12-05T13:55:36;19.90;;;10.53;;
6852;SDS011;3465;42.144;24.722;2022-12-05T14:00:40;20.67;;;10.37;;
6852;SDS011;3465;42.144;24.722;2022-12-05T14:05:58;21.40;;;11.43;;
6852;SDS011;3465;42.144;24.722;2022-12-05T14:15:48;25.53;;;11.40;;
6852;SDS011;3465;42.144;24.722;2022-12-05T14:18:20;24.17;;;10.57;;
6852;SDS011;3465;42.144;24.722;2022-12-05T14:24:14;27.33;;;11.83;;
6852;SDS011;3465;42.144;24.722;2022-12-05T14:32:24;34.57;;;13.70;;
6852;SDS011;3465;42.144;24.722;2022-12-05T14:37:26;31.17;;;13.00;;
6852;SDS011;3465;42.144;24.722;2022-12-05T14:40:14;28.53;;;12.20;;
6852;SDS011;3465;42.144;24.722;2022-12-05T14:45:28;34.37;;;16.30;;
6852;SDS011;3465;42.144;24.722;2022-12-05T14:47:55;39.63;;;16.30;;
6852;SDS011;3465;42.144;24.722;2022-12-05T14:53:33;32.80;;;14.70;;
6852;SDS011;3465;42.144;24.722;2022-12-05T14:58:44;48.47;;;15.83;;
6852;SDS011;3465;42.144;24.722;2022-12-05T15:04:01;34.30;;;13.40;;
6852;SDS011;3465;42.144;24.722;2022-12-05T15:06:34;34.57;;;14.87;;
6852;SDS011;3465;42.144;24.722;2022-12-05T15:12:22;30.83;;;13.60;;
6852;SDS011;3465;42.144;24.722;2022-12-05T15:21:35;29.40;;;14.57;;
6852;SDS011;3465;42.144;24.722;2022-12-05T15:28:59;28.87;;;14.20;;
6852;SDS011;3465;42.144;24.722;2022-12-05T15:31:28;31.93;;;14.40;;
6852;SDS011;3465;42.144;24.722;2022-12-05T15:33:57;38.00;;;13.73;;
6852;SDS011;3465;42.144;24.722;2022-12-05T15:36:30;30.10;;;13.97;;
6852;SDS011;3465;42.144;24.722;2022-12-05T15:39:15;38.90;;;14.50;;
6852;SDS011;3465;42.144;24.722;2022-12-05T15:41:44;36.10;;;15.23;;
6852;SDS011;3465;42.144;24.722;2022-12-05T15:44:09;34.43;;;15.30;;
6852;SDS011;3465;42.144;24.722;2022-12-05T15:46:35;33.20;;;15.20;;
6852;SDS011;3465;42.144;24.722;2022-12-05T15:49:01;39.97;;;15.10;;
6852;SDS011;3465;42.144;24.722;2022-12-05T15:51:41;33.93;;;15.97;;
6852;SDS011;3465;42.144;24.722;2022-12-05T15:54:19;44.27;;;18.90;;
6852;SDS011;3465;42.144;24.722;2022-12-05T15:57:14;77.10;;;25.87;;
6852;SDS011;3465;42.144;24.722;2022-12-05T15:59:51;78.40;;;29.27;;
6852;SDS011;3465;42.144;24.722;2022-12-05T16:02:28;79.13;;;32.80;;
6852;SDS011;3465;42.144;24.722;2022-12-05T16:05:03;71.13;;;27.50;;
6852;SDS011;3465;42.144;24.722;2022-12-05T16:07:30;51.83;;;21.20;;
6852;SDS011;3465;42.144;24.722;2022-12-05T16:09:56;38.20;;;18.87;;
6852;SDS011;3465;42.144;24.722;2022-12-05T16:12:32;43.10;;;18.57;;
6852;SDS011;3465;42.144;24.722;2022-12-05T16:15:03;36.13;;;17.70;;
6852;SDS011;3465;42.144;24.722;2022-12-05T16:17:41;45.33;;;18.57;;
6852;SDS011;3465;42.144;24.722;2022-12-05T16:23:00;38.97;;;16.33;;
6852;SDS011;3465;42.144;24.722;2022-12-05T16:28:42;36.77;;;16.30;;
6852;SDS011;3465;42.144;24.722;2022-12-05T16:31:21;36.57;;;15.53;;
6852;SDS011;3465;42.144;24.722;2022-12-05T16:33:46;41.70;;;17.90;;
6852;SDS011;3465;42.144;24.722;2022-12-05T16:36:12;44.33;;;18.60;;
6852;SDS011;3465;42.144;24.722;2022-12-05T16:38:37;52.13;;;20.37;;
6852;SDS011;3465;42.144;24.722;2022-12-05T16:41:05;55.23;;;21.90;;
6852;SDS011;3465;42.144;24.722;2022-12-05T16:46:41;102.90;;;52.67;;
6852;SDS011;3465;42.144;24.722;2022-12-05T16:51:44;110.60;;;51.27;;
6852;SDS011;3465;42.144;24.722;2022-12-05T16:54:17;95.57;;;46.27;;
6852;SDS011;3465;42.144;24.722;2022-12-05T16:56:42;65.80;;;28.83;;
6852;SDS011;3465;42.144;24.722;2022-12-05T16:59:18;72.70;;;33.70;;
6852;SDS011;3465;42.144;24.722;2022-12-05T17:01:47;83.20;;;31.93;;
6852;SDS011;3465;42.144;24.722;2022-12-05T17:04:13;56.43;;;23.47;;
6852;SDS011;3465;42.144;24.722;2022-12-05T17:06:38;53.10;;;20.60;;
6852;SDS011;3465;42.144;24.722;2022-12-05T17:09:04;50.27;;;20.23;;
6852;SDS011;3465;42.144;24.722;2022-12-05T17:11:30;51.53;;;20.53;;
6852;SDS011;3465;42.144;24.722;2022-12-05T17:13:59;56.73;;;22.63;;
6852;SDS011;3465;42.144;24.722;2022-12-05T17:16:25;77.77;;;32.57;;
6852;SDS011;3465;42.144;24.722;2022-12-05T17:18:51;92.10;;;31.83;;
6852;SDS011;3465;42.144;24.722;2022-12-05T17:21:23;80.40;;;29.73;;
6852;SDS011;3465;42.144;24.722;2022-12-05T17:23:51;62.33;;;25.63;;
6852;SDS011;3465;42.144;24.722;2022-12-05T17:26:17;63.73;;;23.80;;
6852;SDS011;3465;42.144;24.722;2022-12-05T17:28:44;81.33;;;33.53;;
6852;SDS011;3465;42.144;24.722;2022-12-05T17:31:11;83.80;;;31.93;;
6852;SDS011;3465;42.144;24.722;2022-12-05T17:33:40;80.77;;;28.67;;
6852;SDS011;3465;42.144;24.722;2022-12-05T17:36:06;69.97;;;27.00;;
6852;SDS011;3465;42.144;24.722;2022-12-05T17:38:31;91.77;;;30.53;;
6852;SDS011;3465;42.144;24.722;2022-12-05T17:40:57;83.53;;;30.43;;
6852;SDS011;3465;42.144;24.722;2022-12-05T17:43:22;76.40;;;29.10;;
6852;SDS011;3465;42.144;24.722;2022-12-05T17:45:48;97.13;;;41.00;;
6852;SDS011;3465;42.144;24.722;2022-12-05T17:48:14;85.43;;;32.77;;
6852;SDS011;3465;42.144;24.722;2022-12-05T17:50:40;92.67;;;35.07;;
6852;SDS011;3465;42.144;24.722;2022-12-05T17:53:11;94.73;;;36.13;;
6852;SDS011;3465;42.144;24.722;2022-12-05T17:55:41;56.50;;;24.67;;
6852;SDS011;3465;42.144;24.722;2022-12-05T17:58:07;56.30;;;23.80;;
6852;SDS011;3465;42.144;24.722;2022-12-05T18:00:33;67.70;;;27.10;;
6852;SDS011;3465;42.144;24.722;2022-12-05T18:02:58;70.30;;;27.93;;
6852;SDS011;3465;42.144;24.722;2022-12-05T18:05:24;68.87;;;24.80;;
6852;SDS011;3465;42.144;24.722;2022-12-05T18:07:50;53.97;;;23.67;;